sensor_id;sensor_type;location;lat;lon;timestamp;P1;durP1;ratioP1;P2;durP2;ratioP2
22861;SDS011;11598;50.652;6.172;2022-11-20T00:09:19;121.57;;;14.13;;
22861;SDS011;11598;50.652;6.172;2022-11-20T00:19:20;430.80;;;23.05;;
22861;SDS011;11598;50.652;6.172;2022-11-20T00:29:20;424.63;;;20.63;;
22861;SDS011;11598;50.652;6.172;2022-11-20T00:39:21;588.38;;;24.80;;
22861;SDS011;11598;50.652;6.172;2022-11-20T00:49:21;576.38;;;26.75;;
22861;SDS011;11598;50.652;6.172;2022-11-20T00:59:21;519.22;;;25.88;;
22861;SDS011;11598;50.652;6.172;2022-11-20T01:09:22;610.42;;;26.23;;
22861;SDS011;11598;50.652;6.172;2022-11-20T01:19:22;630.83;;;27.58;;
22861;SDS011;11598;50.652;6.172;2022-11-20T01:29:24;436.65;;;22.80;;
22861;SDS011;11598;50.652;6.172;2022-11-20T01:39:25;301.42;;;16.38;;
22861;SDS011;11598;50.652;6.172;2022-11-20T01:49:59;296.92;;;18.17;;
22861;SDS011;11598;50.652;6.172;2022-11-20T02:00:02;248.77;;;17.70;;
22861;SDS011;11598;50.652;6.172;2022-11-20T02:10:11;170.55;;;15.30;;
22861;SDS011;11598;50.652;6.172;2022-11-20T02:20:11;202.02;;;15.45;;
22861;SDS011;11598;50.652;6.172;2022-11-20T02:30:12;123.80;;;14.48;;
22861;SDS011;11598;50.652;6.172;2022-11-20T02:40:13;163.20;;;16.40;;
22861;SDS011;11598;50.652;6.172;2022-11-20T02:50:13;116.15;;;14.18;;
22861;SDS011;11598;50.652;6.172;2022-11-20T03:00:14;98.32;;;13.68;;
22861;SDS011;11598;50.652;6.172;2022-11-20T03:10:16;49.33;;;13.10;;
22861;SDS011;11598;50.652;6.172;2022-11-20T03:20:16;51.50;;;11.90;;
22861;SDS011;11598;50.652;6.172;2022-11-20T03:30:16;167.68;;;15.10;;
22861;SDS011;11598;50.652;6.172;2022-11-20T03:40:17;105.10;;;14.25;;
22861;SDS011;11598;50.652;6.172;2022-11-20T03:50:17;109.18;;;14.68;;
22861;SDS011;11598;50.652;6.172;2022-11-20T04:00:17;72.05;;;13.45;;
22861;SDS011;11598;50.652;6.172;2022-11-20T04:10:18;98.22;;;11.90;;
22861;SDS011;11598;50.652;6.172;2022-11-20T04:20:18;133.80;;;11.70;;
22861;SDS011;11598;50.652;6.172;2022-11-20T04:30:19;185.35;;;13.43;;
22861;SDS011;11598;50.652;6.172;2022-11-20T04:40:19;218.75;;;12.30;;
22861;SDS011;11598;50.652;6.172;2022-11-20T04:50:20;224.32;;;13.18;;
22861;SDS011;11598;50.652;6.172;2022-11-20T05:00:20;225.02;;;14.23;;
22861;SDS011;11598;50.652;6.172;2022-11-20T05:10:21;116.07;;;10.15;;
22861;SDS011;11598;50.652;6.172;2022-11-20T05:20:21;170.60;;;10.93;;
22861;SDS011;11598;50.652;6.172;2022-11-20T05:30:21;165.52;;;9.77;;
22861;SDS011;11598;50.652;6.172;2022-11-20T05:40:22;244.55;;;14.25;;
22861;SDS011;11598;50.652;6.172;2022-11-20T05:50:22;161.18;;;11.13;;
22861;SDS011;11598;50.652;6.172;2022-11-20T06:00:22;154.75;;;12.20;;
22861;SDS011;11598;50.652;6.172;2022-11-20T06:10:23;370.13;;;17.27;;
22861;SDS011;11598;50.652;6.172;2022-11-20T06:20:23;297.33;;;13.68;;
22861;SDS011;11598;50.652;6.172;2022-11-20T06:30:24;260.63;;;14.55;;
22861;SDS011;11598;50.652;6.172;2022-11-20T06:40:24;64.50;;;14.25;;
22861;SDS011;11598;50.652;6.172;2022-11-20T06:50:24;52.25;;;13.40;;
22861;SDS011;11598;50.652;6.172;2022-11-20T07:00:25;56.63;;;13.88;;
22861;SDS011;11598;50.652;6.172;2022-11-20T07:10:25;80.80;;;15.77;;
22861;SDS011;11598;50.652;6.172;2022-11-20T07:20:26;127.57;;;18.05;;
22861;SDS011;11598;50.652;6.172;2022-11-20T07:30:29;36.83;;;14.02;;
22861;SDS011;11598;50.652;6.172;2022-11-20T07:40:30;76.47;;;17.77;;
22861;SDS011;11598;50.652;6.172;2022-11-20T07:50:30;167.25;;;22.67;;
22861;SDS011;11598;50.652;6.172;2022-11-20T08:00:30;175.27;;;24.33;;
22861;SDS011;11598;50.652;6.172;2022-11-20T08:10:31;96.20;;;20.25;;
22861;SDS011;11598;50.652;6.172;2022-11-20T08:20:31;102.50;;;21.17;;
22861;SDS011;11598;50.652;6.172;2022-11-20T08:30:32;96.07;;;21.23;;
22861;SDS011;11598;50.652;6.172;2022-11-20T08:40:33;69.85;;;20.58;;
22861;SDS011;11598;50.652;6.172;2022-11-20T08:50:34;97.75;;;21.13;;
22861;SDS011;11598;50.652;6.172;2022-11-20T09:00:34;106.15;;;19.75;;
22861;SDS011;11598;50.652;6.172;2022-11-20T09:10:34;73.10;;;18.52;;
22861;SDS011;11598;50.652;6.172;2022-11-20T09:20:36;57.75;;;18.48;;
22861;SDS011;11598;50.652;6.172;2022-11-20T09:30:36;61.97;;;16.42;;
22861;SDS011;11598;50.652;6.172;2022-11-20T09:40:38;58.75;;;15.57;;
22861;SDS011;11598;50.652;6.172;2022-11-20T10:00:53;29.00;;;13.00;;
22861;SDS011;11598;50.652;6.172;2022-11-20T10:11:19;43.25;;;13.38;;
22861;SDS011;11598;50.652;6.172;2022-11-20T10:31:36;48.30;;;14.02;;
22861;SDS011;11598;50.652;6.172;2022-11-20T10:41:40;29.88;;;11.50;;
22861;SDS011;11598;50.652;6.172;2022-11-20T10:51:58;28.55;;;10.35;;
22861;SDS011;11598;50.652;6.172;2022-11-20T11:02:15;23.52;;;10.10;;
22861;SDS011;11598;50.652;6.172;2022-11-20T11:12:34;24.35;;;9.77;;
22861;SDS011;11598;50.652;6.172;2022-11-20T11:22:42;21.50;;;9.13;;
22861;SDS011;11598;50.652;6.172;2022-11-20T11:32:48;14.48;;;6.65;;
22861;SDS011;11598;50.652;6.172;2022-11-20T11:42:58;16.88;;;6.70;;
22861;SDS011;11598;50.652;6.172;2022-11-20T12:24:18;9.07;;;2.72;;
22861;SDS011;11598;50.652;6.172;2022-11-20T12:34:43;10.68;;;2.95;;
22861;SDS011;11598;50.652;6.172;2022-11-20T12:45:16;8.02;;;2.28;;
22861;SDS011;11598;50.652;6.172;2022-11-20T12:55:56;5.38;;;1.85;;
22861;SDS011;11598;50.652;6.172;2022-11-20T13:06:10;7.50;;;1.90;;
22861;SDS011;11598;50.652;6.172;2022-11-20T13:16:55;8.30;;;1.90;;
22861;SDS011;11598;50.652;6.172;2022-11-20T13:26:37;4.97;;;1.77;;
22861;SDS011;11598;50.652;6.172;2022-11-20T13:36:48;4.93;;;1.50;;
22861;SDS011;11598;50.652;6.172;2022-11-20T13:46:53;6.53;;;1.63;;
22861;SDS011;11598;50.652;6.172;2022-11-20T14:07:31;3.08;;;0.60;;
22861;SDS011;11598;50.652;6.172;2022-11-20T14:17:36;1.70;;;0.73;;
22861;SDS011;11598;50.652;6.172;2022-11-20T14:27:37;5.72;;;0.77;;
22861;SDS011;11598;50.652;6.172;2022-11-20T14:37:39;6.73;;;1.43;;
22861;SDS011;11598;50.652;6.172;2022-11-20T14:47:40;4.28;;;1.70;;
22861;SDS011;11598;50.652;6.172;2022-11-20T14:57:42;9.32;;;1.63;;
22861;SDS011;11598;50.652;6.172;2022-11-20T15:07:43;5.53;;;1.80;;
22861;SDS011;11598;50.652;6.172;2022-11-20T15:27:54;6.00;;;1.65;;
22861;SDS011;11598;50.652;6.172;2022-11-20T15:37:55;2.95;;;1.20;;
22861;SDS011;11598;50.652;6.172;2022-11-20T15:47:56;2.10;;;0.88;;
22861;SDS011;11598;50.652;6.172;2022-11-20T15:57:57;3.75;;;0.90;;
22861;SDS011;11598;50.652;6.172;2022-11-20T16:07:57;1.58;;;0.70;;
22861;SDS011;11598;50.652;6.172;2022-11-20T16:17:57;1.77;;;0.45;;
22861;SDS011;11598;50.652;6.172;2022-11-20T16:27:58;0.82;;;0.40;;
22861;SDS011;11598;50.652;6.172;2022-11-20T16:37:58;1.90;;;0.60;;
22861;SDS011;11598;50.652;6.172;2022-11-20T16:47:58;1.13;;;0.50;;
22861;SDS011;11598;50.652;6.172;2022-11-20T16:57:59;1.98;;;0.65;;
22861;SDS011;11598;50.652;6.172;2022-11-20T17:07:59;4.47;;;1.05;;
22861;SDS011;11598;50.652;6.172;2022-11-20T17:18:00;3.45;;;1.48;;
22861;SDS011;11598;50.652;6.172;2022-11-20T17:28:02;5.88;;;2.20;;
22861;SDS011;11598;50.652;6.172;2022-11-20T17:38:03;7.78;;;2.40;;
22861;SDS011;11598;50.652;6.172;2022-11-20T17:48:03;10.88;;;2.70;;
22861;SDS011;11598;50.652;6.172;2022-11-20T17:58:04;14.13;;;3.55;;
22861;SDS011;11598;50.652;6.172;2022-11-20T18:08:05;15.80;;;4.53;;
22861;SDS011;11598;50.652;6.172;2022-11-20T18:18:05;16.70;;;4.43;;
22861;SDS011;11598;50.652;6.172;2022-11-20T18:28:06;24.40;;;4.95;;
22861;SDS011;11598;50.652;6.172;2022-11-20T18:38:06;14.35;;;4.50;;
22861;SDS011;11598;50.652;6.172;2022-11-20T18:48:06;17.95;;;5.20;;
22861;SDS011;11598;50.652;6.172;2022-11-20T18:58:07;23.52;;;5.78;;
22861;SDS011;11598;50.652;6.172;2022-11-20T19:08:07;23.48;;;5.15;;
22861;SDS011;11598;50.652;6.172;2022-11-20T19:18:08;27.92;;;4.97;;
22861;SDS011;11598;50.652;6.172;2022-11-20T19:28:08;13.27;;;3.15;;
22861;SDS011;11598;50.652;6.172;2022-11-20T19:38:09;10.35;;;2.50;;
22861;SDS011;11598;50.652;6.172;2022-11-20T19:48:09;13.60;;;2.00;;
22861;SDS011;11598;50.652;6.172;2022-11-20T19:58:09;8.77;;;1.83;;
22861;SDS011;11598;50.652;6.172;2022-11-20T20:08:10;10.98;;;1.77;;
22861;SDS011;11598;50.652;6.172;2022-11-20T20:18:10;7.17;;;1.37;;
22861;SDS011;11598;50.652;6.172;2022-11-20T20:28:11;13.38;;;2.15;;
22861;SDS011;11598;50.652;6.172;2022-11-20T20:38:11;14.75;;;2.13;;
22861;SDS011;11598;50.652;6.172;2022-11-20T20:48:12;10.52;;;2.40;;
22861;SDS011;11598;50.652;6.172;2022-11-20T20:58:13;12.88;;;2.25;;
22861;SDS011;11598;50.652;6.172;2022-11-20T21:08:13;15.65;;;2.90;;
22861;SDS011;11598;50.652;6.172;2022-11-20T21:18:27;13.13;;;3.30;;
22861;SDS011;11598;50.652;6.172;2022-11-20T21:28:29;18.00;;;4.30;;
22861;SDS011;11598;50.652;6.172;2022-11-20T21:38:30;19.80;;;4.67;;
22861;SDS011;11598;50.652;6.172;2022-11-20T21:48:31;28.42;;;4.93;;
22861;SDS011;11598;50.652;6.172;2022-11-20T21:58:33;30.40;;;4.43;;
22861;SDS011;11598;50.652;6.172;2022-11-20T22:08:35;34.45;;;5.50;;
22861;SDS011;11598;50.652;6.172;2022-11-20T22:18:40;24.35;;;4.85;;
22861;SDS011;11598;50.652;6.172;2022-11-20T22:28:45;21.50;;;3.95;;
22861;SDS011;11598;50.652;6.172;2022-11-20T22:38:47;21.90;;;4.83;;
22861;SDS011;11598;50.652;6.172;2022-11-20T22:48:49;23.53;;;5.37;;
22861;SDS011;11598;50.652;6.172;2022-11-20T22:58:50;27.08;;;4.57;;
22861;SDS011;11598;50.652;6.172;2022-11-20T23:08:52;35.30;;;5.65;;
22861;SDS011;11598;50.652;6.172;2022-11-20T23:18:54;28.27;;;5.30;;
22861;SDS011;11598;50.652;6.172;2022-11-20T23:28:55;22.30;;;4.50;;
22861;SDS011;11598;50.652;6.172;2022-11-20T23:38:56;30.50;;;4.80;;
22861;SDS011;11598;50.652;6.172;2022-11-20T23:48:57;28.63;;;4.68;;
22861;SDS011;11598;50.652;6.172;2022-11-20T23:58:57;26.67;;;4.95;;
